createdAt,value
2019-06-20T00:02:24.354Z,35.90
2019-06-20T00:04:54.199Z,35.90
2019-06-20T00:07:24.268Z,36.00
2019-06-20T00:09:54.133Z,36.00
2019-06-20T00:12:24.222Z,36.00
2019-06-20T00:14:54.250Z,36.00
2019-06-20T00:17:24.103Z,36.00
2019-06-20T00:19:54.012Z,36.00
2019-06-20T00:22:24.033Z,35.90
2019-06-20T00:24:53.947Z,35.90
2019-06-20T00:27:23.926Z,35.80
2019-06-20T00:29:53.993Z,35.70
2019-06-20T00:32:23.937Z,35.60
2019-06-20T00:34:53.845Z,35.60
2019-06-20T00:37:23.705Z,35.40
2019-06-20T00:39:53.623Z,35.40
2019-06-20T00:42:23.604Z,35.50
2019-06-20T00:44:53.522Z,35.50
2019-06-20T00:47:23.567Z,35.50
2019-06-20T00:49:53.526Z,35.40
2019-06-20T00:52:23.331Z,35.40
2019-06-20T00:54:53.239Z,35.40
2019-06-20T00:57:23.063Z,35.30
2019-06-20T00:59:52.936Z,35.30
2019-06-20T01:02:22.814Z,35.40
2019-06-20T01:04:52.716Z,35.40
2019-06-20T01:07:22.632Z,35.40
2019-06-20T01:09:52.398Z,35.50
2019-06-20T01:12:22.181Z,35.50
2019-06-20T01:14:52.075Z,35.60
2019-06-20T01:17:21.928Z,35.70
2019-06-20T01:19:51.779Z,35.80
2019-06-20T01:22:21.593Z,36.40
2019-06-20T01:24:51.544Z,35.80
2019-06-20T01:27:21.723Z,35.80
2019-06-20T01:29:51.551Z,35.90
2019-06-20T01:32:21.374Z,35.90
2019-06-20T01:34:51.183Z,36.40
2019-06-20T01:37:21.002Z,35.90
2019-06-20T01:39:50.887Z,35.80
2019-06-20T01:42:20.807Z,35.80
2019-06-20T01:44:50.617Z,35.80
2019-06-20T01:47:20.389Z,35.80
2019-06-20T01:49:50.276Z,35.80
2019-06-20T01:52:20.142Z,35.90
2019-06-20T01:54:49.939Z,35.80
2019-06-20T01:57:20.020Z,35.90
2019-06-20T01:59:49.859Z,36.00
2019-06-20T02:02:19.779Z,36.00
2019-06-20T02:04:49.655Z,36.10
2019-06-20T02:07:19.463Z,36.10
2019-06-20T02:09:49.288Z,36.20
2019-06-20T02:12:19.109Z,36.20
2019-06-20T02:14:48.918Z,36.10
2019-06-20T02:17:18.718Z,36.20
2019-06-20T02:19:48.560Z,36.20
2019-06-20T02:22:18.307Z,36.20
2019-06-20T02:24:48.217Z,36.20
2019-06-20T02:27:18.008Z,36.30
2019-06-20T02:29:47.814Z,36.20
2019-06-20T02:32:17.693Z,36.60
2019-06-20T02:34:47.505Z,36.20
2019-06-20T02:37:17.286Z,36.20
2019-06-20T02:39:47.144Z,36.20
2019-06-20T02:42:16.961Z,36.30
2019-06-20T02:44:46.778Z,36.30
2019-06-20T02:47:16.621Z,36.30
2019-06-20T02:49:46.435Z,36.30
2019-06-20T02:52:16.370Z,36.30
2019-06-20T02:54:46.103Z,36.30
2019-06-20T02:57:15.990Z,36.30
2019-06-20T02:59:45.805Z,36.30
2019-06-20T03:02:15.645Z,36.30
2019-06-20T03:04:45.745Z,36.30
2019-06-20T03:07:15.788Z,36.30
2019-06-20T03:09:45.574Z,36.30
2019-06-20T03:12:15.415Z,36.30
2019-06-20T03:14:45.933Z,36.30
2019-06-20T03:17:15.964Z,36.30
2019-06-20T03:19:45.714Z,36.30
2019-06-20T03:22:15.538Z,36.30
2019-06-20T03:24:45.400Z,37.10
2019-06-20T03:27:15.229Z,36.30
2019-06-20T03:29:45.006Z,36.30
2019-06-20T03:32:14.878Z,36.30
2019-06-20T03:34:44.692Z,36.30
2019-06-20T03:37:14.521Z,36.40
2019-06-20T03:39:44.366Z,36.30
2019-06-20T03:42:14.159Z,36.40
2019-06-20T03:44:44.137Z,36.40
2019-06-20T03:47:13.955Z,36.30
2019-06-20T03:49:43.735Z,36.50
2019-06-20T03:52:13.587Z,36.50
2019-06-20T03:54:43.371Z,36.50
2019-06-20T03:57:13.223Z,36.50
2019-06-20T03:59:43.166Z,36.60
2019-06-20T04:02:13.041Z,36.50
2019-06-20T04:04:42.802Z,36.50
2019-06-20T04:07:12.650Z,36.60
2019-06-20T04:09:42.448Z,36.60
2019-06-20T04:12:12.343Z,36.70
2019-06-20T04:14:42.147Z,37.40
2019-06-20T04:17:11.961Z,36.70
2019-06-20T04:19:41.839Z,36.70
2019-06-20T04:22:11.625Z,36.80
2019-06-20T04:24:41.564Z,36.80
2019-06-20T04:27:11.387Z,36.80
2019-06-20T04:29:41.194Z,36.80
2019-06-20T04:32:11.032Z,36.80
2019-06-20T04:34:40.903Z,36.90
2019-06-20T04:37:10.704Z,36.90
2019-06-20T04:39:40.563Z,36.90
2019-06-20T04:42:10.508Z,36.90
2019-06-20T04:44:40.451Z,36.90
2019-06-20T04:47:11.734Z,37.00
2019-06-20T04:49:41.577Z,36.90
2019-06-20T04:52:11.354Z,36.90
2019-06-20T04:54:41.195Z,37.00
2019-06-20T04:57:11.014Z,36.90
2019-06-20T04:59:40.951Z,36.90
2019-06-20T05:02:14.619Z,36.90
2019-06-20T05:04:42.256Z,36.90
2019-06-20T05:07:19.284Z,36.90
2019-06-20T05:09:49.136Z,36.90
2019-06-20T05:12:18.985Z,37.00
2019-06-20T05:14:48.758Z,36.90
2019-06-20T05:17:18.574Z,36.90
2019-06-20T05:19:48.402Z,36.90
2019-06-20T05:22:18.216Z,36.80
2019-06-20T05:24:48.025Z,36.80
2019-06-20T05:27:18.062Z,36.80
2019-06-20T05:29:47.942Z,36.70
2019-06-20T05:32:17.739Z,36.70
2019-06-20T05:34:47.612Z,36.60
2019-06-20T05:37:17.483Z,36.50
2019-06-20T05:39:47.289Z,36.50
2019-06-20T05:42:17.111Z,36.40
2019-06-20T05:44:47.000Z,36.40
2019-06-20T05:47:16.899Z,36.30
2019-06-20T05:49:46.727Z,36.40
2019-06-20T05:52:17.373Z,36.30
2019-06-20T05:54:47.320Z,37.00
2019-06-20T05:57:17.274Z,36.20
2019-06-20T05:59:47.183Z,36.30
2019-06-20T06:02:16.972Z,36.30
2019-06-20T06:04:46.935Z,36.30
2019-06-20T06:07:16.773Z,36.30
2019-06-20T06:09:46.580Z,36.30
2019-06-20T06:12:16.417Z,36.30
2019-06-20T06:14:46.330Z,36.30
2019-06-20T06:17:16.271Z,36.30
2019-06-20T06:19:46.236Z,36.40
2019-06-20T06:22:16.025Z,36.30
2019-06-20T06:24:45.883Z,36.30
2019-06-20T06:27:15.687Z,36.30
2019-06-20T06:29:45.657Z,36.30
2019-06-20T06:32:15.555Z,36.30
2019-06-20T06:34:45.330Z,36.30
2019-06-20T06:37:15.233Z,36.30
2019-06-20T06:39:45.148Z,36.40
2019-06-20T06:42:14.908Z,36.40
2019-06-20T06:44:44.759Z,36.40
2019-06-20T06:47:14.597Z,36.40
2019-06-20T06:49:44.392Z,37.10
2019-06-20T06:52:14.251Z,36.30
2019-06-20T06:54:44.194Z,36.30
2019-06-20T06:57:14.139Z,36.30
2019-06-20T06:59:44.024Z,36.30
2019-06-20T07:02:13.958Z,36.30
2019-06-20T07:04:43.831Z,36.30
2019-06-20T07:07:13.729Z,36.30
2019-06-20T07:09:43.747Z,36.30
2019-06-20T07:12:13.538Z,36.30
2019-06-20T07:14:43.383Z,36.40
2019-06-20T07:17:13.410Z,36.40
2019-06-20T07:19:43.518Z,36.40
2019-06-20T07:22:13.426Z,36.40
2019-06-20T07:24:43.284Z,36.40
2019-06-20T07:27:13.146Z,36.50
2019-06-20T07:29:43.017Z,36.50
2019-06-20T07:32:12.903Z,36.50
2019-06-20T07:34:42.682Z,36.60
2019-06-20T07:37:12.551Z,36.60
2019-06-20T07:39:42.415Z,36.60
2019-06-20T07:42:12.282Z,36.60
2019-06-20T07:44:42.185Z,36.70
2019-06-20T07:47:17.432Z,36.70
2019-06-20T07:49:43.731Z,36.70
2019-06-20T07:52:13.591Z,36.80
2019-06-20T07:54:43.666Z,36.80
2019-06-20T07:57:13.583Z,36.80
2019-06-20T07:59:43.450Z,36.80
2019-06-20T08:02:13.549Z,36.80
2019-06-20T08:04:43.339Z,36.90
2019-06-20T08:07:13.161Z,37.00
2019-06-20T08:09:45.249Z,37.00
2019-06-20T08:12:14.534Z,37.00
2019-06-20T08:14:44.436Z,37.00
2019-06-20T08:17:14.339Z,36.90
2019-06-20T08:19:44.322Z,37.00
2019-06-20T08:22:14.165Z,37.10
2019-06-20T08:24:43.993Z,37.00
2019-06-20T08:27:14.949Z,37.00
2019-06-20T08:29:44.957Z,37.10
2019-06-20T08:32:14.820Z,37.00
2019-06-20T08:34:44.689Z,37.00
2019-06-20T08:37:14.550Z,37.00
2019-06-20T08:39:44.435Z,37.00
2019-06-20T08:42:14.392Z,37.00
2019-06-20T08:44:44.668Z,37.00
2019-06-20T08:47:14.581Z,37.10
2019-06-20T08:49:44.496Z,37.10
2019-06-20T08:52:14.310Z,37.10
2019-06-20T08:54:44.218Z,37.10
2019-06-20T08:57:14.147Z,37.00
2019-06-20T08:59:44.106Z,37.00
2019-06-20T09:02:13.954Z,37.00
2019-06-20T09:04:43.802Z,37.00
2019-06-20T09:07:13.717Z,36.90
2019-06-20T09:09:43.623Z,36.90
2019-06-20T09:12:13.492Z,36.90
2019-06-20T09:14:43.319Z,36.90
2019-06-20T09:17:13.298Z,36.80
2019-06-20T09:19:43.113Z,36.80
2019-06-20T09:22:13.048Z,36.80
2019-06-20T09:24:42.960Z,36.80
2019-06-20T09:27:12.826Z,36.60
2019-06-20T09:29:42.660Z,36.60
2019-06-20T09:32:12.669Z,36.60
2019-06-20T09:34:42.509Z,36.60
2019-06-20T09:37:12.414Z,36.60
2019-06-20T09:39:42.327Z,36.60
2019-06-20T09:42:12.226Z,36.70
2019-06-20T09:44:42.146Z,36.70
2019-06-20T09:47:12.234Z,36.60
2019-06-20T09:49:42.133Z,36.60
2019-06-20T09:52:12.084Z,36.60
2019-06-20T09:54:41.905Z,36.50
2019-06-20T09:57:12.868Z,36.40
2019-06-20T09:59:56.138Z,36.40
2019-06-20T10:02:14.419Z,36.20
2019-06-20T10:04:44.354Z,36.30
2019-06-20T10:07:14.159Z,36.20
2019-06-20T10:09:43.995Z,36.20
2019-06-20T10:12:13.895Z,36.20
2019-06-20T10:14:45.461Z,36.10
2019-06-20T10:17:15.208Z,36.00
2019-06-20T10:19:46.704Z,35.80
2019-06-20T10:22:16.711Z,35.90
2019-06-20T10:24:47.415Z,36.50
2019-06-20T10:27:17.501Z,35.80
2019-06-20T10:29:47.830Z,35.50
2019-06-20T10:32:18.882Z,35.60
2019-06-20T10:34:48.753Z,35.80
2019-06-20T10:37:18.697Z,35.80
2019-06-20T10:39:49.948Z,35.80
2019-06-20T10:42:20.375Z,35.80
2019-06-20T10:44:50.247Z,36.00
2019-06-20T10:47:32.485Z,36.00
2019-06-20T10:49:51.979Z,36.00
2019-06-20T10:52:21.989Z,36.00
2019-06-20T10:54:51.816Z,36.10
2019-06-20T10:57:21.848Z,35.90
2019-06-20T10:59:51.726Z,35.90
2019-06-20T11:02:21.543Z,36.00
2019-06-20T11:04:51.438Z,35.80
2019-06-20T11:07:21.266Z,35.90
2019-06-20T11:09:51.232Z,35.90
2019-06-20T11:12:21.188Z,36.00
2019-06-20T11:14:51.121Z,36.00
2019-06-20T11:17:20.951Z,36.00
2019-06-20T11:19:50.759Z,36.60
2019-06-20T11:22:20.649Z,36.10
2019-06-20T11:24:50.476Z,36.00
2019-06-20T11:27:20.342Z,36.10
2019-06-20T11:29:50.254Z,35.90
2019-06-20T11:32:20.145Z,35.70
2019-06-20T11:34:50.074Z,35.80
2019-06-20T11:37:19.881Z,35.90
2019-06-20T11:39:51.312Z,35.90
2019-06-20T11:42:21.315Z,36.00
2019-06-20T11:44:51.138Z,36.00
2019-06-20T11:47:21.102Z,36.00
2019-06-20T11:49:50.918Z,36.00
2019-06-20T11:52:20.830Z,35.90
2019-06-20T11:54:50.718Z,36.60
2019-06-20T11:57:20.536Z,36.00
2019-06-20T11:59:51.643Z,35.80
2019-06-20T12:02:21.601Z,35.90
2019-06-20T12:04:51.434Z,35.90
2019-06-20T12:07:21.238Z,35.90
2019-06-20T12:09:53.543Z,36.00
2019-06-20T12:12:23.855Z,35.90
2019-06-20T12:15:07.164Z,35.80
2019-06-20T12:17:38.193Z,35.80
2019-06-20T12:20:09.143Z,35.90
2019-06-20T12:22:39.956Z,35.90
2019-06-20T12:25:10.685Z,35.90
2019-06-20T12:27:40.841Z,35.80
2019-06-20T12:30:12.646Z,35.90
2019-06-20T12:32:42.590Z,35.90
2019-06-20T12:35:12.787Z,36.00
2019-06-20T12:37:42.788Z,36.00
2019-06-20T12:40:13.484Z,36.00
2019-06-20T12:42:44.757Z,35.90
2019-06-20T12:45:16.647Z,36.00
2019-06-20T12:47:46.575Z,36.00
2019-06-20T12:50:16.738Z,36.00
2019-06-20T12:52:47.640Z,36.00
2019-06-20T12:55:17.890Z,35.90
2019-06-20T12:57:48.511Z,36.00
2019-06-20T13:00:20.611Z,36.00
2019-06-20T13:02:50.758Z,36.10
2019-06-20T13:05:23.304Z,36.00
2019-06-20T13:07:53.575Z,36.00
2019-06-20T13:10:24.457Z,36.00
2019-06-20T13:12:54.326Z,36.10
2019-06-20T13:15:24.502Z,36.10
2019-06-20T13:17:54.556Z,36.10
2019-06-20T13:20:24.377Z,36.10
2019-06-20T13:22:54.230Z,36.10
2019-06-20T13:25:24.197Z,36.20
2019-06-20T13:27:54.058Z,36.10
2019-06-20T13:30:23.982Z,36.80
2019-06-20T13:32:53.933Z,36.10
2019-06-20T13:35:23.728Z,36.20
2019-06-20T13:37:53.558Z,36.20
2019-06-20T13:40:23.661Z,36.20
2019-06-20T13:42:54.709Z,36.10
2019-06-20T13:45:26.072Z,36.00
2019-06-20T13:47:56.430Z,35.70
2019-06-20T13:50:27.753Z,36.10
2019-06-20T13:52:57.722Z,36.00
2019-06-20T13:55:27.548Z,36.00
2019-06-20T13:57:57.375Z,36.00
2019-06-20T14:00:27.812Z,36.10
2019-06-20T14:02:57.710Z,36.10
2019-06-20T14:05:27.534Z,36.20
2019-06-20T14:07:57.626Z,36.10
2019-06-20T14:10:27.565Z,36.10
2019-06-20T14:12:57.477Z,36.10
2019-06-20T14:15:27.305Z,36.10
2019-06-20T14:17:57.171Z,36.00
2019-06-20T14:20:27.455Z,35.90
2019-06-20T14:22:57.282Z,35.90
2019-06-20T14:25:27.353Z,36.00
2019-06-20T14:27:57.173Z,35.90
2019-06-20T14:30:27.117Z,35.80
2019-06-20T14:32:57.209Z,35.90
2019-06-20T14:35:27.099Z,35.90
2019-06-20T14:37:56.986Z,36.10
2019-06-20T14:40:26.842Z,36.00
2019-06-20T14:42:56.757Z,36.00
2019-06-20T14:45:26.814Z,36.10
2019-06-20T14:47:56.746Z,36.20
2019-06-20T14:50:26.640Z,36.20
2019-06-20T14:52:56.681Z,36.20
2019-06-20T14:55:26.504Z,36.20
2019-06-20T14:57:56.595Z,36.20
2019-06-20T15:00:26.864Z,36.20
2019-06-20T15:02:58.651Z,36.20
2019-06-20T15:05:28.828Z,36.20
2019-06-20T15:07:58.834Z,36.20
2019-06-20T15:10:28.712Z,36.20
2019-06-20T15:12:58.619Z,36.20
2019-06-20T15:15:31.451Z,36.20
2019-06-20T15:17:59.899Z,36.90
2019-06-20T15:20:29.755Z,36.30
2019-06-20T15:22:59.672Z,36.20
2019-06-20T15:25:29.522Z,36.30
2019-06-20T15:27:59.400Z,36.20
2019-06-20T15:30:29.618Z,36.00
2019-06-20T15:33:09.978Z,36.10
2019-06-20T15:35:34.469Z,36.10
2019-06-20T15:38:04.667Z,35.90
2019-06-20T15:40:34.542Z,35.90
2019-06-20T15:43:04.466Z,35.90
2019-06-20T15:45:34.326Z,36.00
2019-06-20T15:48:04.157Z,36.00
2019-06-20T15:50:34.033Z,36.00
2019-06-20T15:53:03.930Z,36.00
2019-06-20T15:55:34.152Z,36.20
2019-06-20T15:58:04.011Z,36.20
2019-06-20T16:00:34.265Z,36.30
2019-06-20T16:03:09.986Z,36.30
2019-06-20T16:05:36.149Z,36.30
2019-06-20T16:08:06.078Z,36.30
2019-06-20T16:10:35.923Z,36.20
2019-06-20T16:13:06.938Z,36.20
2019-06-20T16:15:36.811Z,36.20
2019-06-20T16:18:06.870Z,36.00
2019-06-20T16:20:36.723Z,36.00
2019-06-20T16:23:06.645Z,35.90
2019-06-20T16:25:36.469Z,35.80
2019-06-20T16:28:06.425Z,35.70
2019-06-20T16:30:36.289Z,35.50
2019-06-20T16:33:06.208Z,35.50
2019-06-20T16:35:36.146Z,35.60
2019-06-20T16:38:06.028Z,35.50
2019-06-20T16:40:46.543Z,35.30
2019-06-20T16:43:16.914Z,35.20
2019-06-20T16:45:46.781Z,35.50
2019-06-20T16:48:16.748Z,35.20
2019-06-20T16:50:46.661Z,34.70
2019-06-20T16:53:16.524Z,34.80
2019-06-20T16:55:46.369Z,34.90
2019-06-20T16:58:16.332Z,34.90
2019-06-20T17:00:46.373Z,34.70
2019-06-20T17:03:16.556Z,34.50
2019-06-20T17:05:46.430Z,34.70
2019-06-20T17:08:16.793Z,34.70
2019-06-20T17:10:46.619Z,34.70
2019-06-20T17:13:16.526Z,34.90
2019-06-20T17:15:46.444Z,34.90
2019-06-20T17:18:16.301Z,34.70
2019-06-20T17:20:46.267Z,34.60
2019-06-20T17:23:16.088Z,34.60
2019-06-20T17:25:46.011Z,34.70
2019-06-20T17:28:15.901Z,34.90
2019-06-20T17:30:46.748Z,34.80
2019-06-20T17:33:16.731Z,34.90
2019-06-20T17:35:46.636Z,35.10
2019-06-20T17:38:16.562Z,35.10
2019-06-20T17:40:46.530Z,35.00
2019-06-20T17:43:16.346Z,35.00
2019-06-20T17:45:46.356Z,35.10
2019-06-20T17:48:16.158Z,34.90
2019-06-20T17:50:46.071Z,34.90
2019-06-20T17:53:16.019Z,34.80
2019-06-20T17:55:45.848Z,34.90
2019-06-20T17:58:15.733Z,35.00
2019-06-20T18:00:45.721Z,34.90
2019-06-20T18:03:15.690Z,34.90
2019-06-20T18:05:45.679Z,35.00
2019-06-20T18:08:15.743Z,35.00
2019-06-20T18:10:45.809Z,35.00
2019-06-20T18:13:15.672Z,35.00
2019-06-20T18:15:45.588Z,35.20
2019-06-20T18:18:15.582Z,35.20
2019-06-20T18:20:45.495Z,35.10
2019-06-20T18:23:15.393Z,34.90
2019-06-20T18:25:45.189Z,34.80
2019-06-20T18:28:14.999Z,35.00
2019-06-20T18:30:46.363Z,35.30
2019-06-20T18:33:16.266Z,35.40
2019-06-20T18:35:47.198Z,35.30
2019-06-20T18:38:17.141Z,35.30
2019-06-20T18:40:47.473Z,35.20
2019-06-20T18:43:17.380Z,35.00
2019-06-20T18:45:47.386Z,35.00
2019-06-20T18:48:17.351Z,35.30
2019-06-20T18:50:47.292Z,35.20
2019-06-20T18:53:17.193Z,35.10
2019-06-20T18:55:47.073Z,35.10
2019-06-20T18:58:16.927Z,35.20
2019-06-20T19:00:46.827Z,35.20
2019-06-20T19:03:16.694Z,35.40
2019-06-20T19:05:46.651Z,35.00
2019-06-20T19:08:16.509Z,35.00
2019-06-20T19:10:46.431Z,34.80
2019-06-20T19:13:16.431Z,34.80
2019-06-20T19:15:46.285Z,35.60
2019-06-20T19:18:16.257Z,35.00
2019-06-20T19:20:46.133Z,35.00
2019-06-20T19:23:15.930Z,34.90
2019-06-20T19:25:45.858Z,34.90
2019-06-20T19:28:15.703Z,34.90
2019-06-20T19:30:50.423Z,35.00
2019-06-20T19:33:20.509Z,35.10
2019-06-20T19:35:50.394Z,35.10
2019-06-20T19:38:20.491Z,34.90
2019-06-20T19:40:51.899Z,34.90
2019-06-20T19:43:21.718Z,34.90
2019-06-20T19:45:51.722Z,34.90
2019-06-20T19:48:21.687Z,35.00
2019-06-20T19:50:51.520Z,35.10
2019-06-20T19:53:21.554Z,35.10
2019-06-20T19:55:51.389Z,35.70
2019-06-20T19:58:21.256Z,35.10
2019-06-20T20:00:51.115Z,35.10
2019-06-20T20:03:21.219Z,34.90
2019-06-20T20:05:51.070Z,34.90
2019-06-20T20:08:21.075Z,34.70
2019-06-20T20:10:51.302Z,34.80
2019-06-20T20:13:21.101Z,34.90
2019-06-20T20:15:50.973Z,34.90
2019-06-20T20:18:20.878Z,35.00
2019-06-20T20:20:50.772Z,35.00
2019-06-20T20:23:20.705Z,34.90
2019-06-20T20:25:50.566Z,34.90
2019-06-20T20:28:20.495Z,34.80
2019-06-20T20:30:53.543Z,34.90
2019-06-20T20:33:22.041Z,35.70
2019-06-20T20:35:52.003Z,35.10
2019-06-20T20:38:21.784Z,35.10
2019-06-20T20:40:51.697Z,35.00
2019-06-20T20:43:21.589Z,35.00
2019-06-20T20:45:51.416Z,34.90
2019-06-20T20:48:22.784Z,34.90
2019-06-20T20:50:52.644Z,35.00
2019-06-20T20:53:22.986Z,35.00
2019-06-20T20:55:53.002Z,34.90
2019-06-20T20:58:22.796Z,34.90
2019-06-20T21:01:17.273Z,35.00
2019-06-20T21:03:47.308Z,34.90
2019-06-20T21:06:17.154Z,35.00
2019-06-20T21:08:47.080Z,35.00
2019-06-20T21:11:16.888Z,34.90
2019-06-20T21:13:46.708Z,34.90
2019-06-20T21:16:16.568Z,34.80
2019-06-20T21:18:46.695Z,34.60
2019-06-20T21:21:16.583Z,34.60
2019-06-20T21:23:46.418Z,34.10
2019-06-20T21:26:16.260Z,34.70
2019-06-20T21:28:46.242Z,34.70
2019-06-20T21:31:16.085Z,34.70
2019-06-20T21:33:45.965Z,34.70
2019-06-20T21:36:15.856Z,34.80
2019-06-20T21:38:45.719Z,34.90
2019-06-20T21:41:15.546Z,34.90
2019-06-20T21:43:45.463Z,34.90
2019-06-20T21:46:15.320Z,34.80
2019-06-20T21:48:45.150Z,34.90
2019-06-20T21:51:15.042Z,34.90
2019-06-20T21:53:44.838Z,34.80
2019-06-20T21:56:14.692Z,34.90
2019-06-20T21:58:44.582Z,34.80
2019-06-20T22:01:15.139Z,34.90
2019-06-20T22:03:44.978Z,34.90
2019-06-20T22:06:23.853Z,34.80
2019-06-20T22:08:46.450Z,34.90
2019-06-20T22:11:16.474Z,34.90
2019-06-20T22:13:49.195Z,34.90
2019-06-20T22:16:19.269Z,34.90
2019-06-20T22:18:49.749Z,34.90
2019-06-20T22:21:19.598Z,34.90
2019-06-20T22:23:49.484Z,35.00
2019-06-20T22:26:19.439Z,34.90
2019-06-20T22:28:49.310Z,35.00
2019-06-20T22:31:19.172Z,34.90
2019-06-20T22:33:49.006Z,35.00
2019-06-20T22:36:18.835Z,35.00
2019-06-20T22:38:48.794Z,35.00
2019-06-20T22:41:18.721Z,34.90
2019-06-20T22:43:48.553Z,34.90
2019-06-20T22:46:18.545Z,34.90
2019-06-20T22:48:48.394Z,35.00
2019-06-20T22:51:18.277Z,35.00
2019-06-20T22:53:48.166Z,35.10
2019-06-20T22:56:18.084Z,35.00
2019-06-20T22:58:47.992Z,35.00
2019-06-20T23:01:18.030Z,35.00
2019-06-20T23:03:47.800Z,35.10
2019-06-20T23:06:17.656Z,35.10
2019-06-20T23:08:47.455Z,35.00
2019-06-20T23:11:17.277Z,35.10
2019-06-20T23:13:47.086Z,35.10
2019-06-20T23:16:16.998Z,35.10
2019-06-20T23:18:46.846Z,35.10
2019-06-20T23:21:16.837Z,35.10
2019-06-20T23:23:46.636Z,35.10
2019-06-20T23:26:16.484Z,35.10
2019-06-20T23:28:48.601Z,35.20
2019-06-20T23:31:18.439Z,35.30
2019-06-20T23:33:48.333Z,35.20
2019-06-20T23:36:18.139Z,35.20
2019-06-20T23:38:47.950Z,35.30
2019-06-20T23:41:17.695Z,35.90
2019-06-20T23:43:47.536Z,35.20
2019-06-20T23:46:17.314Z,35.30
2019-06-20T23:49:06.198Z,35.30
2019-06-20T23:51:38.403Z,34.00
2019-06-20T23:54:08.216Z,35.30
2019-06-20T23:56:38.329Z,35.30
2019-06-20T23:59:08.432Z,35.30
